• Join FlightAware (Why Join?)
  • Login
  • US Flag 
06:50AM EDT


 

Airport Tracker/Info


-or-


 

Live Flight TrackerFlight Track Log ✈ UAL906 ✈ 26-Jul-2013 ✈ EDDF / FRA - KORD

Flight Track Log - Related Links

Times and Time Zones

All times are in EDT time to prevent confusion due to time zone crossing. See the UAL906 flight status page for this flight to view local times or setup timezone preferences in your user account.

Time Position Orientation Groundspeed Altitude Reporting Facility
EDT Latitude Longitude Course Direction KTS MPH feet Rate Location/Type
06:47AM 50.0480 8.5830 160° South 16 18  Level FlightAware
06:49AM 50.0490 8.5840 33° Northeast 17 20  Level FlightAware
06:49AM 50.0490 8.5850 90° East  Level FlightAware
06:52AM 50.1763 8.2300 300° West  Level FlightAware Approximate
06:53AM 50.2421 8.0825 308° West  Level FlightAware Approximate
06:54AM 50.3077 7.9347 308° West  Level FlightAware Approximate
06:54AM 50.0490 8.5840 308° West 16 18  Level FlightAware
06:55AM 50.0490 8.5830 270° West 27 31 60 Level FlightAware
06:55AM 50.0480 8.5800 243° Southwest 31 36 60 Level FlightAware
06:55AM 50.0470 8.5790 213° Southwest 23 26 60 Level FlightAware
06:56AM 50.0470 8.5800 90° East 21 24 60 Level FlightAware
06:56AM 50.0460 8.5800 180° South 23 26 60 Level FlightAware
06:56AM 50.0460 8.5810 90° East 24 28 60 Level FlightAware
06:57AM 50.0460 8.5820 90° East 23 26 60 Level FlightAware
06:57AM 50.0460 8.5840 90° East 20 23 60 Level FlightAware
07:00AM 50.1846 8.2078 300° West  Level FlightAware Approximate
07:01AM 50.2523 8.0621 308° West  Level FlightAware Approximate
07:02AM 50.3179 7.9144 308° West  Level FlightAware Approximate
07:02AM 50.0470 8.5850 308° West 16 18  Level FlightAware
07:03AM 50.0460 8.5860 147° Southeast 11 13 120 Level FlightAware
07:05AM 50.1540 8.2893 300° West  Level FlightAware Approximate
07:06AM 50.2150 8.1367 308° West  Level FlightAware Approximate
07:07AM 50.2812 7.9896 298° West  Level FlightAware Approximate
07:08AM 50.3517 7.8466 308° West  Level FlightAware Approximate
07:09AM 50.4186 7.6992 305° West  Level FlightAware Approximate
07:09AM 50.0450 8.5850 270° West 22 25  Level FlightAware
07:10AM 50.0420 8.5750 245° Southwest 115 132 900 Level FlightAware
07:10AM 50.0380 8.5560 252° West 175 201 1,500 Level FlightAware
07:10AM 50.0290 8.5200 249° West 189 217 1,200 2,400 Climbing FlightAware
07:11AM 50.0270 8.5010 261° West 188 216 1,800 2,160 Climbing FlightAware
07:11AM 50.0290 8.4680 275° West 194 223 2,600 1,560 Climbing FlightAware
07:12AM 50.0260 8.4050 266° West 212 244 3,600 1,320 Climbing FlightAware
07:12AM 50.0230 8.3830 258° West 222 255 3,900 1,080 Climbing FlightAware
07:13AM 50.0170 8.3320 260° West 257 296 4,400 900 Climbing FlightAware
07:13AM 50.0130 8.2920 261° West 282 325 4,700 1,260 Climbing FlightAware
07:14AM 50.0390 8.1880 291° West 328 377 5,900 1,260 Climbing FlightAware
07:14AM 50.0550 8.1370 296° West 349 402 6,300 1,920 Climbing FlightAware
07:15AM 50.0850 8.0680 304° West 356 410 7,700 2,640 Climbing FlightAware
07:15AM 50.1060 8.0290 310° West 354 407 8,600 2,580 Climbing FlightAware
07:15AM 50.1190 8.0040 309° West 355 409 9,100 1,980 Climbing FlightAware
07:16AM 50.1650 7.9140 309° West 370 426 10,500 1,920 Climbing FlightAware
07:17AM 50.2060 7.8350 309° West 378 435 11,800 1,920 Climbing FlightAware
07:17AM 50.2490 7.7550 310° West 389 448 13,000 1,860 Climbing FlightAware
07:17AM 50.2730 7.7290 325° Northwest 399 459 13,500 1,980 Climbing FlightAware
07:18AM 50.3420 7.6790 335° Northwest 406 467 14,900 1,980 Climbing FlightAware
07:19AM 50.4090 7.6330 336° Northwest 408 470 16,200 1,500 Climbing FlightAware
07:19AM 50.4800 7.5840 336° Northwest 425 489 16,900 1,200 Climbing FlightAware
07:20AM 50.5610 7.5240 335° Northwest 430 495 18,000 1,620 Climbing FlightAware
07:21AM 50.6330 7.4530 328° Northwest 428 493 19,300 1,620 Climbing FlightAware
07:22AM 50.6970 7.3880 327° Northwest 432 497 20,200 1,200 Climbing FlightAware
07:22AM 50.7780 7.3040 327° Northwest 444 511 21,100 1,140 Climbing FlightAware
07:23AM 50.8470 7.2320 327° Northwest 450 518 21,900 1,260 Climbing FlightAware
07:24AM 50.9240 7.1520 327° Northwest 454 522 22,900 1,260 Climbing FlightAware
07:24AM 50.9750 7.0520 309° West 441 507 23,700 1,200 Climbing FlightAware
07:25AM 50.9980 6.9340 287° West 442 509 24,500 1,140 Climbing FlightAware
07:26AM 51.0210 6.7970 285° West 448 516 25,300 1,020 Climbing FlightAware
07:26AM 51.0430 6.6690 285° West 454 522 25,900 840 Climbing FlightAware
07:27AM 51.0640 6.5510 286° West 462 532 26,400 900 Climbing FlightAware
07:28AM 51.0860 6.4190 285° West 467 537 27,100 1,020 Climbing FlightAware
07:29AM 51.1110 6.2730 285° West 467 537 27,900 1,140 Climbing FlightAware
07:29AM 51.1370 6.1190 285° West 468 539 28,800 1,020 Climbing FlightAware
07:30AM 51.1590 5.9850 285° West 473 544 29,400 840 Climbing FlightAware
07:31AM 51.1790 5.8500 283° West 474 545 30,000 1,140 Climbing FlightAware
07:31AM 51.1820 5.7180 272° West 464 534 30,900 1,320 Climbing FlightAware
07:32AM 51.1820 5.5870 270° West 459 528 31,700 1,140 Climbing FlightAware
07:33AM 51.1810 5.4380 269° West 456 525 32,500 1,200 Climbing FlightAware
07:33AM 51.1800 5.3030 269° West 450 518 33,400 1,020 Climbing FlightAware
07:34AM 51.1790 5.1600 269° West 445 512 34,000 420 Climbing FlightAware
07:35AM 51.1770 5.0460 268° West 445 512 34,000 -120 Level FlightAware
07:36AM 51.1720 4.8420 268° West 490 564 33,900  Descending FlightAware UK
07:36AM 51.1780 4.8460 268° West 446 513 34,000 120 Climbing FlightAware
07:36AM 51.1900 4.7150 278° West 452 520 34,000  Level FlightAware
07:37AM 51.2080 4.5660 281° West 451 519 34,000  Level FlightAware
07:38AM 51.2240 4.4280 281° West 450 518 34,000  Level FlightAware
07:38AM 51.2390 4.2980 280° West 450 518 34,000  Level FlightAware
07:39AM 51.2540 4.1680 280° West 449 517 34,000 -120 Level FlightAware
07:40AM 51.2679 4.0449 280° West 490 564 33,900  Descending FlightAware UK
07:40AM 51.2710 4.0240 280° West 448 516 34,000 60 Climbing FlightAware
07:41AM 51.2870 3.8840 280° West 448 516 34,000  Level FlightAware
07:41AM 51.3020 3.7420 280° West 447 514 34,000  Level FlightAware
07:42AM 51.3170 3.6150 281° West 445 512 34,000  Level FlightAware
07:43AM 51.3330 3.4650 280° West 445 512 34,000  Level FlightAware
07:43AM 51.3470 3.3390 280° West 444 511 34,000  Level FlightAware
07:44AM 51.3580 3.2283 280° West 490 564 34,000  Level FlightAware UK
07:44AM 51.3620 3.1950 280° West 444 511 34,000 -180 Level FlightAware
07:45AM 51.3729 3.0934 280° West 484 557 33,900  Descending FlightAware UK
07:45AM 51.3750 3.0710 280° West 445 512 34,000 120 Climbing FlightAware
07:45AM 51.3880 2.9530 280° West 447 514 34,000  Level FlightAware
07:46AM 51.4030 2.8100 280° West 447 514 34,000 -120 Level FlightAware
07:47AM 51.4179 2.6624 280° West 486 559 33,900  Descending FlightAware UK
07:47AM 51.4230 2.6110 280° West 449 517 34,000 60 Climbing FlightAware
07:48AM 51.4360 2.4860 280° West 450 518 34,000  Level FlightAware
07:49AM 51.4510 2.3310 279° West 450 518 34,000  Level FlightAware
07:49AM 51.4640 2.1990 279° West 450 518 34,000  Level FlightAware
07:50AM 51.4738 2.1006 279° West 450 518 34,000  Level FlightAware ADS-B
07:50AM 51.4871 1.9627 279° West 449 517 34,000  Level FlightAware ADS-B
07:51AM 51.4973 1.8554 279° West 449 517 34,000 -120 Level FlightAware ADS-B
07:52AM 51.5057 1.7376 279° West 490 564 33,900  Descending FlightAware UK
07:52AM 51.5060 1.7370 279° West 443 510 34,000 120 Climbing FlightAware
07:52AM 51.5080 1.6220 272° West 439 505 34,000 -120 Level FlightAware
07:53AM 51.5100 1.5044 272° West 488 562 33,900  Descending FlightAware UK
07:53AM 51.5100 1.4790 272° West 438 504 34,000 60 Climbing FlightAware
07:54AM 51.5100 1.3420 270° West 438 504 34,000  Level FlightAware
07:54AM 51.5106 1.1664 270° West 438 504 34,000  Level FlightAware ADS-B
07:55AM 51.5107 1.0621 270° West 438 504 34,000  Level FlightAware ADS-B
07:56AM 51.5108 0.9600 270° West 439 505 34,000  Level FlightAware ADS-B
07:56AM 51.5108 0.8555 270° West 439 505 34,000  Level FlightAware ADS-B
07:57AM 51.5107 0.7549 270° West 439 505 34,000  Level FlightAware ADS-B
07:57AM 51.5105 0.6509 270° West 438 504 34,000  Level FlightAware ADS-B
07:58AM 51.5103 0.5488 270° West 438 504 34,000  Level FlightAware ADS-B
07:58AM 51.5098 0.4068 270° West 438 504 34,000  Level FlightAware ADS-B
07:59AM 51.5093 0.3017 270° West 486 559 34,000  Level FlightAware UK
07:59AM 51.5092 0.2841 270° West 439 505 34,000  Level FlightAware ADS-B
07:59AM 51.5087 0.1870 270° West 439 505 34,000  Level FlightAware ADS-B
08:00AM 51.5079 0.0857 269° West 439 505 34,000  Level FlightAware ADS-B
08:01AM 51.5071 -0.0249 269° West 438 504 34,000  Level FlightAware ADS-B
08:01AM 51.5063 -0.1224 269° West 438 504 34,000  Level FlightAware ADS-B
08:02AM 51.5055 -0.2201 269° West 437 503 34,000  Level FlightAware ADS-B
08:02AM 51.5044 -0.3202 269° West 437 503 34,000  Level FlightAware ADS-B
08:03AM 51.5033 -0.4282 269° West 436 502 34,000  Level FlightAware ADS-B
08:03AM 51.5020 -0.5297 269° West 435 501 34,000  Level FlightAware ADS-B
08:04AM 51.5008 -0.6268 269° West 435 501 34,000  Level FlightAware ADS-B
08:04AM 51.4995 -0.7277 269° West 434 499 34,000  Level FlightAware ADS-B
08:05AM 51.4980 -0.8256 269° West 434 499 34,000  Level FlightAware ADS-B
08:05AM 51.4964 -0.9378 269° West 433 498 34,000  Level FlightAware ADS-B
08:06AM 51.4947 -1.0428 269° West 433 498 34,000  Level FlightAware ADS-B
08:06AM 51.4942 -1.1136 269° West 436 502 34,000  Level FlightAware ADS-B
08:07AM 51.4967 -1.1797 274° West 441 507 34,000  Level FlightAware ADS-B
08:07AM 51.5000 -1.2219 277° West 444 511 34,000  Level FlightAware ADS-B
08:07AM 51.5050 -1.2684 280° West 447 514 34,000  Level FlightAware ADS-B
08:08AM 51.5174 -1.3726 281° West 446 513 34,000  Level FlightAware ADS-B
08:08AM 51.5276 -1.4803 279° West 442 509 34,000  Level FlightAware ADS-B
08:09AM 51.5350 -1.5777 277° West 440 506 34,000  Level FlightAware ADS-B
08:09AM 51.5430 -1.6968 276° West 439 505 34,000  Level FlightAware ADS-B
08:10AM 51.5495 -1.7961 276° West 439 505 34,000  Level FlightAware ADS-B
08:10AM 51.5563 -1.9000 276° West 439 505 34,000  Level FlightAware ADS-B
08:11AM 51.5628 -1.9980 276° West 439 505 34,000  Level FlightAware ADS-B
08:11AM 51.5692 -2.0950 276° West 440 506 34,000  Level FlightAware ADS-B
08:12AM 51.5758 -2.1934 276° West 486 559 34,000  Level FlightAware UK
08:12AM 51.5784 -2.2335 276° West 439 505 34,000  Level FlightAware ADS-B
08:13AM 51.5850 -2.3344 276° West 438 504 34,000  Level FlightAware ADS-B
08:13AM 51.5923 -2.4456 276° West 438 504 34,000  Level FlightAware ADS-B
08:14AM 51.5985 -2.5442 276° West 438 504 34,000  Level FlightAware ADS-B
08:14AM 51.6046 -2.6428 276° West 439 505 34,000  Level FlightAware ADS-B
08:15AM 51.6125 -2.7695 276° West 439 505 34,000  Level FlightAware ADS-B
08:15AM 51.6187 -2.8723 276° West 440 506 34,000 -120 Level FlightAware ADS-B
08:16AM 51.6244 -2.9682 276° West 488 562 33,900  Descending FlightAware UK
08:16AM 51.6300 -3.0630 276° West 440 506 34,000  Climbing FlightAware
08:17AM 51.6371 -3.1824 276° West 486 559 33,900  Descending FlightAware UK
08:17AM 51.6380 -3.1930 276° West 438 504 34,000  Climbing FlightAware
08:17AM 51.6436 -3.2986 276° West 482 555 33,900  Descending FlightAware UK
08:18AM 51.6460 -3.3360 276° West 440 506 34,000 120 Climbing FlightAware
08:18AM 51.6510 -3.4410 274° West 441 507 34,000  Level FlightAware
08:19AM 51.6590 -3.5850 275° West 443 510 34,000  Level FlightAware
08:20AM 51.6660 -3.7100 275° West 447 514 34,000  Level FlightAware
08:20AM 51.6730 -3.8380 275° West 449 517 34,000  Level FlightAware
08:21AM 51.6800 -3.9680 275° West 450 518 34,000  Level FlightAware
08:22AM 51.6870 -4.1210 274° West 451 519 34,000  Level FlightAware
08:22AM 51.6935 -4.2497 274° West 484 557 34,000  Level FlightAware UK
08:22AM 51.6940 -4.2560 274° West 453 521 34,000  Level FlightAware
08:23AM 51.7010 -4.4040 274° West 455 524 34,000  Level FlightAware
08:24AM 51.7070 -4.5460 274° West 456 525 34,000  Level FlightAware
08:24AM 51.7140 -4.6910 275° West 457 526 34,000  Level FlightAware
08:25AM 51.7188 -4.7968 275° West 486 559 34,000  Level FlightAware UK
08:25AM 51.7190 -4.8030 275° West 457 526 34,000  Level FlightAware
08:26AM 51.7239 -4.9183 275° West 488 562 34,000  Level FlightAware UK
08:26AM 51.7250 -4.9470 275° West 459 528 34,000  Level FlightAware
08:26AM 51.7310 -5.0830 274° West 460 529 34,000  Level FlightAware
08:27AM 51.7370 -5.2400 274° West 460 529 34,000  Level FlightAware
08:28AM 51.7420 -5.3780 273° West 461 531 34,000 -120 Level FlightAware
08:28AM 51.7477 -5.5127 273° West 490 564 33,900  Descending FlightAware UK
08:28AM 51.7480 -5.5140 273° West 462 532 34,000 120 Climbing FlightAware
08:29AM 51.7530 -5.6540 273° West 462 532 34,000  Level FlightAware
08:30AM 51.7640 -5.8080 277° West 470 541 34,000  Level FlightAware
08:31AM 51.7880 -5.9570 285° West 476 548 34,000  Level FlightAware
08:31AM 51.8120 -6.0950 286° West 476 548 34,000  Level FlightAware
08:32AM 51.8314 -6.2113 286° West 488 562 34,000  Level FlightAware UK
08:32AM 51.8350 -6.2310 286° West 477 549 34,000  Level FlightAware
08:33AM 51.8600 -6.3770 286° West 477 549 34,000  Level FlightAware
08:33AM 51.8850 -6.5202 286° West 490 564 34,000  Level FlightAware UK
08:33AM 51.8860 -6.5270 286° West 477 549 34,000  Level FlightAware
08:34AM 51.9090 -6.6620 285° West 477 549 34,000  Level FlightAware
08:35AM 51.9350 -6.8170 285° West 475 547 34,000  Level FlightAware
08:35AM 51.9551 -6.9324 285° West 488 562 34,000  Level FlightAware UK
08:35AM 51.9580 -6.9520 285° West 476 548 34,000  Level FlightAware
08:36AM 51.9840 -7.1050 285° West 476 548 34,000  Level FlightAware
08:37AM 52.0070 -7.2450 285° West 475 547 34,000 -120 Level FlightAware
08:37AM 52.0268 -7.3667 285° West 486 559 33,900  Descending FlightAware UK
08:38AM 52.0280 -7.3750 285° West 478 550 34,000 60 Climbing FlightAware
08:38AM 52.0550 -7.5380 285° West 477 549 34,000 -120 Level FlightAware
08:39AM 52.0771 -7.6779 285° West 484 557 33,900  Descending FlightAware UK
08:39AM 52.0770 -7.6780 285° West 478 550 34,000 120 Climbing FlightAware
08:40AM 52.0970 -7.8040 285° West 478 550 34,000  Level FlightAware
08:40AM 52.1220 -7.9600 285° West 477 549 34,000 -120 Level FlightAware
08:41AM 52.1462 -8.1154 285° West 482 555 33,900  Descending FlightAware UK
08:41AM 52.1460 -8.1120 285° West 478 550 34,000 120 Climbing FlightAware
08:42AM 52.1680 -8.2560 284° West 479 551 34,000  Level FlightAware
08:42AM 52.1900 -8.3980 284° West 480 552 34,000  Level FlightAware
08:43AM 52.2090 -8.5200 284° West 478 550 34,000  Level FlightAware
08:43AM 52.2138 -8.5542 284° West 488 562 34,000  Level FlightAware UK
08:44AM 52.2298 -8.6591 284° West 488 562 34,000  Level FlightAware UK
08:44AM 52.2290 -8.6520 284° West 477 549 34,000  Level FlightAware
08:44AM 52.2520 -8.8070 284° West 476 548 34,000  Level FlightAware
08:45AM 52.2710 -8.9360 284° West 474 545 34,000  Level FlightAware
08:46AM 52.2960 -9.1070 284° West 471 542 34,000  Level FlightAware
08:46AM 52.3140 -9.2260 284° West 471 542 34,000  Level FlightAware
08:47AM 52.3370 -9.3890 283° West 471 542 34,000  Level FlightAware
08:48AM 52.3570 -9.5290 283° West 471 542 34,000  Level FlightAware
08:49AM 52.3790 -9.6800 283° West 472 543 34,000  Level FlightAware
08:49AM 52.3990 -9.8220 283° West 473 544 34,000  Level FlightAware
08:50AM 52.4180 -9.9650 282° West 473 544 34,000  Level FlightAware
08:51AM 52.4400 -10.1230 283° West 473 544 34,000  Level FlightAware
08:51AM 52.4590 -10.2620 283° West 473 544 34,000  Level FlightAware
08:52AM 52.4810 -10.4220 283° West 476 548 34,000  Level FlightAware
08:53AM 52.4990 -10.5620 282° West 477 549 34,000  Level FlightAware
08:54AM 52.5200 -10.7200 282° West 477 549 34,000  Level FlightAware
08:54AM 52.5390 -10.8620 282° West 478 550 34,000  Level FlightAware
08:55AM 52.5570 -11.0020 282° West 477 549 34,000  Level FlightAware
08:56AM 52.5750 -11.1430 282° West 477 549 34,000  Level FlightAware
08:56AM 52.5960 -11.3100 282° West 477 549 34,000  Level FlightAware
08:57AM 52.6150 -11.4610 282° West 477 549 34,000  Level FlightAware
08:58AM 52.6490 -11.7360 282° West 476 548 34,000  Level FlightAware
08:59AM 52.6800 -11.9880 282° West 476 548 34,000 60 Level FlightAware
09:00AM 52.6990 -12.1490 281° West 477 549 34,200 300 Climbing FlightAware
09:01AM 52.7240 -12.3590 281° West 486 559 34,600 480 Climbing FlightAware
09:02AM 52.7410 -12.5070 281° West 489 563 35,000 600 Climbing FlightAware
09:03AM 52.7560 -12.6420 280° West 490 564 35,400 360 Climbing FlightAware
09:04AM 52.7860 -12.9180 280° West 490 564 35,800 420 Climbing FlightAware
09:04AM 52.8040 -13.0730 281° West 491 565 36,300 420 Climbing FlightAware
09:06AM 52.8310 -13.3240 280° West 492 566 36,600 120 Climbing FlightAware
09:06AM 52.8420 -13.4380 279° West 492 566 36,600  Level FlightAware
09:07AM 52.8560 -13.5900 279° West 492 566 36,600  Level FlightAware
09:08AM 52.8680 -13.7100 279° West 492 566 36,600  Level FlightAware
09:08AM 52.8820 -13.8620 279° West 492 566 36,600  Level FlightAware
09:09AM 52.8930 -13.9760 279° West 492 566 36,600  Level FlightAware
09:10AM 52.9080 -14.1310 279° West 492 566 36,600  Level FlightAware
09:10AM 52.9190 -14.2480 279° West 492 566 36,600  Level FlightAware
09:12AM 52.9370 -14.4420 279° West 492 566 36,600  Level FlightAware
09:12AM 52.9480 -14.5560 279° West 492 566 36,600  Level FlightAware
09:13AM 52.9660 -14.7460 279° West 492 566 36,600  Level FlightAware
09:14AM 52.9770 -14.8600 279° West 492 566 36,600  Level FlightAware
09:15AM 52.9920 -15.0130 279° West 492 566 36,600  Level FlightAware
09:15AM 53.0030 -15.1270 279° West 492 566 36,600  Level FlightAware
09:18AM 53.0945 -15.6091 288° West  Level Estimated
09:19AM 53.1320 -15.8105 287° West  Level Estimated
09:20AM 53.1692 -16.0123 287° West  Level Estimated
09:21AM 53.2061 -16.2145 287° West  Level Estimated
09:22AM 53.2426 -16.4170 287° West  Level Estimated
09:23AM 53.2788 -16.6198 287° West  Level Estimated
09:24AM 53.3146 -16.8230 287° West  Level Estimated
09:25AM 53.3501 -17.0266 286° West  Level Estimated
09:26AM 53.3852 -17.2304 286° West  Level Estimated
09:27AM 53.4200 -17.4346 286° West  Level Estimated
09:28AM 53.4544 -17.6392 286° West  Level Estimated
09:29AM 53.4885 -17.8440 286° West  Level Estimated
09:30AM 53.5222 -18.0492 286° West  Level Estimated
09:31AM 53.5556 -18.2547 285° West  Level Estimated
09:32AM 53.5886 -18.4606 285° West  Level Estimated
09:33AM 53.6213 -18.6667 285° West  Level Estimated
09:34AM 53.6536 -18.8732 285° West  Level Estimated
09:35AM 53.6856 -19.0800 285° West  Level Estimated
09:35AM 53.0000 -20.0000 265° West 493 567 37,000  Level ETMS Enhanced Traffic Management System
09:36AM 53.7172 -19.2871 285° West  Level Estimated
09:37AM 53.7484 -19.4945 284° West  Level Estimated
09:38AM 53.7793 -19.7022 284° West  Level Estimated
09:39AM 53.8099 -19.9103 284° West  Level Estimated
09:40AM 53.8400 -20.1186 284° West  Level Estimated
09:41AM 52.9159 -21.3571 264° West 493 567 37,000  Level FlightAware Transoceanic
09:42AM 52.9003 -21.5828 263° West 493 567 37,000  Level FlightAware Transoceanic
09:43AM 52.8844 -21.8083 263° West 493 567 37,000  Level FlightAware Transoceanic
09:44AM 52.8680 -22.0336 263° West 493 567 37,000  Level FlightAware Transoceanic
09:45AM 52.8512 -22.2588 263° West 493 567 37,000  Level FlightAware Transoceanic
09:46AM 52.8340 -22.4838 263° West 493 567 37,000  Level FlightAware Transoceanic
09:47AM 52.8163 -22.7086 263° West 493 567 37,000  Level FlightAware Transoceanic
09:48AM 52.7982 -22.9332 262° West 493 567 37,000  Level FlightAware Transoceanic
09:49AM 52.7797 -23.1576 262° West 493 567 37,000  Level FlightAware Transoceanic
09:50AM 52.7608 -23.3818 262° West 493 567 37,000  Level FlightAware Transoceanic
09:51AM 52.7415 -23.6059 262° West 493 567 37,000  Level FlightAware Transoceanic
09:52AM 52.7217 -23.8297 262° West 493 567 37,000  Level FlightAware Transoceanic
09:53AM 52.7015 -24.0533 261° West 493 567 37,000  Level FlightAware Transoceanic
09:54AM 52.6809 -24.2768 261° West 493 567 37,000  Level FlightAware Transoceanic
09:55AM 52.6598 -24.5000 261° West 493 567 37,000  Level FlightAware Transoceanic
09:56AM 52.6384 -24.7229 261° West 493 567 37,000  Level FlightAware Transoceanic
09:57AM 52.6165 -24.9457 261° West 493 567 37,000  Level FlightAware Transoceanic
09:58AM 52.5942 -25.1682 261° West 493 567 37,000  Level FlightAware Transoceanic
09:59AM 52.5715 -25.3906 260° West 493 567 37,000  Level FlightAware Transoceanic
10:00AM 52.5484 -25.6126 260° West 493 567 37,000  Level FlightAware Transoceanic
10:01AM 52.5249 -25.8345 260° West 493 567 37,000  Level FlightAware Transoceanic
10:02AM 52.5009 -26.0561 260° West 493 567 37,000  Level FlightAware Transoceanic
10:03AM 52.4766 -26.2775 260° West 493 567 37,000  Level FlightAware Transoceanic
10:04AM 52.4518 -26.4986 259° West 493 567 37,000  Level FlightAware Transoceanic
10:05AM 52.4266 -26.7195 259° West 493 567 37,000  Level FlightAware Transoceanic
10:06AM 52.4010 -26.9401 259° West 493 567 37,000  Level FlightAware Transoceanic
10:07AM 52.3750 -27.1604 259° West 493 567 37,000  Level FlightAware Transoceanic
10:08AM 52.3486 -27.3805 259° West 493 567 37,000  Level FlightAware Transoceanic
10:09AM 52.3218 -27.6003 259° West 493 567 37,000  Level FlightAware Transoceanic
10:10AM 52.2945 -27.8199 258° West 493 567 37,000  Level FlightAware Transoceanic
10:11AM 52.2669 -28.0392 258° West 493 567 37,000  Level FlightAware Transoceanic
10:12AM 52.2388 -28.2582 258° West 493 567 37,000  Level FlightAware Transoceanic
10:13AM 52.2104 -28.4769 258° West 493 567 37,000  Level FlightAware Transoceanic
10:14AM 52.1815 -28.6954 258° West 493 567 37,000  Level FlightAware Transoceanic
10:15AM 52.1523 -28.9136 258° West 493 567 37,000  Level FlightAware Transoceanic
10:16AM 52.1226 -29.1314 257° West 493 567 37,000  Level FlightAware Transoceanic
10:17AM 52.0926 -29.3490 257° West 493 567 37,000  Level FlightAware Transoceanic
10:18AM 52.0621 -29.5663 257° West 493 567 37,000  Level FlightAware Transoceanic
10:19AM 52.0313 -29.7833 257° West 493 567 37,000  Level FlightAware Transoceanic
10:20AM 52.0024 -29.9836 257° West  Level FlightAware Approximate
10:21AM 51.9731 -30.1837 257° West  Level FlightAware Approximate
10:22AM 51.9745 -30.1669 256° West  Level FlightAware Approximate
10:23AM 51.9437 -30.3662 256° West  Level FlightAware Approximate
10:24AM 51.9125 -30.5652 256° West  Level FlightAware Approximate
10:25AM 51.8811 -30.7639 256° West  Level FlightAware Approximate
10:26AM 51.8493 -30.9624 256° West  Level FlightAware Approximate
10:27AM 51.8171 -31.1606 255° West  Level FlightAware Approximate
10:28AM 51.7846 -31.3585 255° West  Level FlightAware Approximate
10:29AM 51.7518 -31.5561 255° West  Level FlightAware Approximate
10:30AM 51.7187 -31.7534 255° West  Level FlightAware Approximate
10:31AM 51.6852 -31.9504 255° West  Level FlightAware Approximate
10:32AM 51.6514 -32.1472 255° West  Level FlightAware Approximate
10:33AM 51.6173 -32.3436 254° West  Level FlightAware Approximate
10:34AM 51.5828 -32.5398 254° West  Level FlightAware Approximate
10:35AM 51.5480 -32.7356 254° West  Level FlightAware Approximate
10:36AM 51.5129 -32.9312 254° West  Level FlightAware Approximate
10:37AM 51.4775 -33.1264 254° West  Level FlightAware Approximate
10:38AM 51.4417 -33.3214 254° West  Level FlightAware Approximate
10:39AM 51.4057 -33.5160 254° West  Level FlightAware Approximate
10:40AM 51.3693 -33.7103 253° West  Level FlightAware Approximate
10:41AM 51.3326 -33.9043 253° West  Level FlightAware Approximate
10:42AM 51.2955 -34.0980 253° West  Level FlightAware Approximate
10:43AM 51.2581 -34.2914 253° West  Level FlightAware Approximate
10:44AM 51.2205 -34.4845 253° West  Level FlightAware Approximate
10:45AM 51.1825 -34.6773 253° West  Level FlightAware Approximate
10:46AM 51.1442 -34.8697 252° West  Level FlightAware Approximate
10:47AM 51.1055 -35.0618 252° West  Level FlightAware Approximate
10:48AM 51.0666 -35.2536 252° West  Level FlightAware Approximate
10:49AM 51.0274 -35.4451 252° West  Level FlightAware Approximate
10:50AM 50.9878 -35.6362 252° West  Level FlightAware Approximate
10:51AM 50.9479 -35.8271 252° West  Level FlightAware Approximate
10:52AM 50.9077 -36.0176 252° West  Level FlightAware Approximate
10:53AM 50.8672 -36.2077 251° West  Level FlightAware Approximate
10:54AM 50.8264 -36.3975 251° West  Level FlightAware Approximate
10:55AM 50.7853 -36.5870 251° West  Level FlightAware Approximate
10:56AM 50.7439 -36.7762 251° West  Level FlightAware Approximate
10:57AM 50.7021 -36.9650 251° West  Level FlightAware Approximate
10:58AM 50.6601 -37.1535 251° West  Level FlightAware Approximate
10:59AM 50.6178 -37.3417 251° West  Level FlightAware Approximate
11:00AM 50.5751 -37.5295 250° West  Level FlightAware Approximate
11:01AM 50.5334 -37.7176 251° West  Level FlightAware Approximate
11:02AM 50.4916 -37.9056 251° West  Level FlightAware Approximate
11:03AM 50.4495 -38.0932 251° West  Level FlightAware Approximate
11:04AM 50.4071 -38.2804 251° West  Level FlightAware Approximate
11:05AM 50.3648 -38.4657 250° West  Level FlightAware Approximate
11:06AM 50.3222 -38.6506 250° West  Level FlightAware Approximate
11:07AM 50.2793 -38.8351 250° West  Level FlightAware Approximate
11:08AM 50.2361 -39.0193 250° West  Level FlightAware Approximate
11:09AM 50.1926 -39.2032 250° West  Level FlightAware Approximate
11:10AM 50.1489 -39.3868 250° West  Level FlightAware Approximate
11:11AM 50.1048 -39.5700 250° West  Level FlightAware Approximate
11:12AM 50.0605 -39.7529 249° West  Level FlightAware Approximate
11:13AM 50.0159 -39.9354 249° West  Level FlightAware Approximate
11:14AM 49.9715 -40.1179 249° West  Level FlightAware Approximate
11:15AM 49.9271 -40.3003 249° West  Level FlightAware Approximate
11:16AM 49.8825 -40.4823 249° West  Level FlightAware Approximate
11:17AM 49.8376 -40.6640 249° West  Level FlightAware Approximate
11:18AM 49.7923 -40.8453 249° West  Level FlightAware Approximate
11:19AM 49.7468 -41.0263 249° West  Level FlightAware Approximate
11:20AM 49.7011 -41.2070 249° West  Level FlightAware Approximate
11:21AM 49.6550 -41.3873 249° West  Level FlightAware Approximate
11:22AM 49.6087 -41.5673 248° West  Level FlightAware Approximate
11:23AM 49.5620 -41.7469 248° West  Level FlightAware Approximate
11:24AM 49.5151 -41.9262 248° West  Level FlightAware Approximate
11:25AM 49.4680 -42.1051 248° West  Level FlightAware Approximate
11:26AM 49.4205 -42.2837 248° West  Level FlightAware Approximate
11:27AM 49.3728 -42.4620 248° West  Level FlightAware Approximate
11:28AM 49.3248 -42.6399 248° West  Level FlightAware Approximate
11:29AM 49.2765 -42.8175 247° West  Level FlightAware Approximate
11:30AM 49.2280 -42.9947 247° West  Level FlightAware Approximate
11:31AM 49.1792 -43.1716 247° West  Level FlightAware Approximate
11:32AM 49.1301 -43.3481 247° West  Level FlightAware Approximate
11:33AM 49.0807 -43.5243 247° West  Level FlightAware Approximate
11:34AM 49.0311 -43.7001 247° West  Level FlightAware Approximate
11:35AM 48.9812 -43.8755 247° West  Level FlightAware Approximate
11:36AM 48.9311 -44.0506 247° West  Level FlightAware Approximate
11:37AM 48.8807 -44.2254 246° West  Level FlightAware Approximate
11:38AM 48.8300 -44.3998 246° West  Level FlightAware Approximate
11:39AM 48.7790 -44.5738 246° West  Level FlightAware Approximate
11:40AM 48.7279 -44.7476 246° West  Level FlightAware Approximate
11:41AM 48.6764 -44.9209 246° West  Level FlightAware Approximate
11:42AM 48.6247 -45.0939 246° West  Level FlightAware Approximate
11:43AM 48.5727 -45.2665 246° West  Level FlightAware Approximate
11:44AM 48.5205 -45.4388 245° Southwest  Level FlightAware Approximate
11:45AM 48.4679 -45.6107 245° Southwest  Level FlightAware Approximate
11:46AM 48.4152 -45.7823 245° Southwest  Level FlightAware Approximate
11:47AM 48.3622 -45.9535 245° Southwest  Level FlightAware Approximate
11:48AM 48.3089 -46.1244 245° Southwest  Level FlightAware Approximate
11:49AM 48.2554 -46.2949 245° Southwest  Level FlightAware Approximate
11:50AM 48.2017 -46.4650 245° Southwest  Level FlightAware Approximate
11:51AM 48.1477 -46.6348 245° Southwest  Level FlightAware Approximate
11:52AM 48.0934 -46.8042 244° Southwest  Level FlightAware Approximate
11:53AM 48.0389 -46.9733 244° Southwest  Level FlightAware Approximate
11:54AM 47.9841 -47.1420 244° Southwest  Level FlightAware Approximate
11:55AM 47.9291 -47.3103 244° Southwest  Level FlightAware Approximate
11:56AM 47.8739 -47.4783 244° Southwest  Level FlightAware Approximate
11:57AM 47.8184 -47.6460 244° Southwest  Level FlightAware Approximate
11:58AM 47.7626 -47.8132 244° Southwest  Level FlightAware Approximate
11:59AM 47.7066 -47.9801 244° Southwest  Level FlightAware Approximate
12:00PM 47.6504 -48.1467 243° Southwest  Level FlightAware Approximate
12:01PM 47.5940 -48.3129 243° Southwest  Level FlightAware Approximate
12:02PM 47.5373 -48.4787 243° Southwest  Level FlightAware Approximate
12:03PM 47.4803 -48.6442 243° Southwest  Level FlightAware Approximate
12:04PM 47.4231 -48.8093 243° Southwest  Level FlightAware Approximate
12:05PM 47.3657 -48.9741 243° Southwest  Level FlightAware Approximate
12:05PM 47.2240 -49.4310 243° Southwest 485 558 37,000  Level FlightAware
12:06PM 47.3081 -49.1385 243° Southwest  Level FlightAware Approximate
12:06PM 47.1850 -49.5390 242° Southwest 486 559 37,000  Level FlightAware
12:07PM 47.1290 -49.6960 242° Southwest 486 559 37,000  Level FlightAware
12:08PM 47.0740 -49.8470 242° Southwest 486 559 37,000  Level FlightAware
12:08PM 47.0330 -49.9610 242° Southwest 486 559 37,000  Level FlightAware
12:09PM 47.0000 -50.0500 241° Southwest 486 559 37,000  Level FlightAware
12:10PM 46.9590 -50.1640 242° Southwest 486 559 37,000  Level FlightAware
12:11PM 46.9040 -50.3140 242° Southwest 486 559 37,000  Level FlightAware
12:11PM 46.8720 -50.4030 242° Southwest 486 559 37,000  Level FlightAware
12:12PM 46.8310 -50.5170 242° Southwest 486 559 37,000  Level FlightAware
12:13PM 46.7970 -50.6110 242° Southwest 486 559 37,000  Level FlightAware
12:13PM 46.7660 -50.6940 241° Southwest 486 559 37,000  Level FlightAware
12:14PM 46.8720 -51.0360 294° West 487 560 37,000  Level FlightAware
12:14PM 46.8570 -51.1380 258° West 487 560 37,000 600 Level FlightAware
12:15PM 46.8450 -51.2740 263° West 485 558 37,800 720 Climbing FlightAware
12:16PM 46.8310 -51.4280 262° West 488 562 38,000 120 Climbing FlightAware
12:17PM 46.8170 -51.5930 263° West 488 562 38,000  Level FlightAware
12:17PM 46.8020 -51.7740 263° West 487 560 38,000  Level FlightAware
12:18PM 46.7910 -51.9120 263° West 488 562 38,000  Level FlightAware
12:19PM 46.7790 -52.0440 262° West 488 562 38,000  Level FlightAware
12:20PM 46.7680 -52.1780 263° West 488 562 38,000  Level FlightAware
12:20PM 46.7560 -52.3140 263° West 488 562 38,000  Level FlightAware
12:21PM 46.7440 -52.4400 262° West 487 560 38,000  Level FlightAware
12:22PM 46.7310 -52.5820 262° West 487 560 38,000  Level FlightAware
12:22PM 46.7200 -52.6980 262° West 488 562 38,000  Level FlightAware
12:23PM 46.7080 -52.8270 262° West 488 562 38,000  Level FlightAware
12:24PM 46.6940 -52.9730 262° West 488 562 38,000  Level FlightAware
12:24PM 46.6810 -53.1120 262° West 487 560 38,000  Level FlightAware
12:25PM 46.6670 -53.2490 262° West 488 562 38,000  Level FlightAware
12:26PM 46.6550 -53.3810 263° West 489 563 38,000  Level FlightAware
12:26PM 46.6410 -53.5160 261° West 488 562 38,000  Level FlightAware
12:27PM 46.6260 -53.6600 261° West 488 562 38,000  Level FlightAware
12:28PM 46.6140 -53.7820 262° West 488 562 38,000  Level FlightAware
12:29PM 46.5990 -53.9230 261° West 488 562 38,000  Level FlightAware
12:29PM 46.5850 -54.0510 261° West 488 562 38,000  Level FlightAware
12:30PM 46.5750 -54.1510 262° West 488 562 38,000  Level FlightAware
12:31PM 46.5600 -54.2880 261° West 488 562 38,000  Level FlightAware
12:31PM 46.5440 -54.4380 261° West 38,000  Level FlightAware
12:32PM 46.5270 -54.5900 261° West 488 562 38,000  Level FlightAware
12:33PM 46.5140 -54.7000 260° West 488 562 38,000  Level FlightAware
12:33PM 46.4970 -54.8610 261° West 488 562 38,000  Level FlightAware
12:34PM 46.4840 -54.9760 261° West 487 560 38,000  Level FlightAware
12:35PM 46.4660 -55.1310 260° West 487 560 38,000  Level FlightAware
12:35PM 46.4530 -55.2430 260° West 487 560 38,000  Level FlightAware
12:36PM 46.4390 -55.3600 260° West 486 559 38,000  Level FlightAware
12:37PM 46.4220 -55.5070 261° West 487 560 38,000  Level FlightAware
12:38PM 46.4000 -55.6910 260° West 486 559 38,000  Level FlightAware
12:39PM 46.3810 -55.8460 260° West 486 559 38,000  Level FlightAware
12:39PM 46.3630 -55.9920 260° West 486 559 38,000  Level FlightAware
12:40PM 46.3490 -56.0990 259° West 486 559 38,000  Level FlightAware
12:41PM 46.3320 -56.2450 260° West 38,000  Level FlightAware
12:42PM 46.3060 -56.4480 260° West 487 560 38,000  Level FlightAware
12:43PM 46.2730 -56.7070 260° West 485 558 38,000  Level FlightAware
12:44PM 46.2540 -56.8520 259° West 485 558 38,000  Level FlightAware
12:44PM 46.2390 -56.9610 259° West 485 558 38,000  Level FlightAware
12:45PM 46.2210 -57.0960 259° West 485 558 38,000  Level FlightAware
12:46PM 46.2000 -57.2550 259° West 485 558 38,000  Level FlightAware
12:47PM 46.1790 -57.4080 259° West 484 557 38,000  Level FlightAware
12:47PM 46.1630 -57.5150 258° West 484 557 38,000  Level FlightAware
12:48PM 46.1480 -57.6150 258° West 484 557 38,000  Level FlightAware
12:49PM 46.1290 -57.7440 258° West 484 557 38,000  Level FlightAware
12:49PM 46.1150 -57.8400 258° West 484 557 38,000  Level FlightAware
12:50PM 46.0880 -58.0600 260° West 484 557 38,000  Level FlightAware
12:51PM 46.0690 -58.1930 258° West 483 556 38,000  Level FlightAware
12:51PM 46.0510 -58.3120 258° West 483 556 38,000  Level FlightAware
12:52PM 46.0290 -58.4620 258° West 482 555 38,000  Level FlightAware
12:53PM 46.0110 -58.5860 258° West 481 554 38,000  Level FlightAware
12:54PM 45.9920 -58.7180 258° West 481 554 38,000  Level FlightAware
12:54PM 45.9720 -58.8500 258° West 479 551 38,000  Level FlightAware
12:55PM 45.9520 -58.9800 258° West 478 550 38,000  Level FlightAware
12:56PM 45.9310 -59.1160 258° West 479 551 38,000  Level FlightAware
12:56PM 45.9130 -59.2350 258° West 478 550 38,000  Level FlightAware
12:57PM 45.8960 -59.3440 257° West 478 550 38,000  Level FlightAware
12:58PM 45.8760 -59.4750 258° West 478 550 38,000  Level FlightAware
12:58PM 45.8550 -59.6060 257° West 478 550 38,000  Level FlightAware
12:59PM 45.8390 -59.7110 258° West 478 550 38,000  Level FlightAware
01:00PM 45.8180 -59.8390 257° West 479 551 38,000  Level FlightAware
01:00PM 45.7950 -59.9810 257° West 478 550 38,000  Level FlightAware
01:01PM 45.7770 -60.0970 257° West 477 549 38,000  Level FlightAware
01:02PM 45.7570 -60.2200 257° West 476 548 38,000  Level FlightAware
01:03PM 45.7320 -60.3670 256° West 475 547 38,000  Level FlightAware
01:03PM 45.7110 -60.4940 257° West 474 545 38,000  Level FlightAware
01:04PM 45.6930 -60.6050 257° West 473 544 38,000  Level FlightAware
01:04PM 45.6720 -60.7260 256° West 473 544 38,000  Level FlightAware
01:05PM 45.6510 -60.8520 257° West 474 545 38,000  Level FlightAware
01:06PM 45.6280 -60.9870 256° West 474 545 38,000  Level FlightAware
01:07PM 45.6050 -61.1190 256° West 473 544 38,000  Level FlightAware
01:07PM 45.5860 -61.2300 256° West 472 543 38,000  Level FlightAware
01:08PM 45.5600 -61.3790 256° West 472 543 38,000  Level FlightAware
01:09PM 45.5440 -61.4720 256° West 472 543 38,000  Level FlightAware
01:10PM 45.5220 -61.5950 256° West 472 543 38,000  Level FlightAware
01:10PM 45.5060 -61.6900 257° West 472 543 38,000  Level FlightAware
01:11PM 45.4790 -61.8440 256° West 472 543 38,000  Level FlightAware
01:12PM 45.4630 -61.9320 255° West 472 543 38,000  Level FlightAware
01:13PM 45.4420 -62.0550 256° West 472 543 38,000  Level FlightAware
01:13PM 45.4250 -62.1500 256° West 472 543 38,000  Level FlightAware
01:14PM 45.4030 -62.2760 256° West 472 543 38,000  Level FlightAware
01:15PM 45.3870 -62.3680 256° West 472 543 38,000  Level FlightAware
01:15PM 45.3650 -62.4910 256° West 472 543 38,000  Level FlightAware
01:16PM 45.3490 -62.5830 256° West 472 543 38,000 -1,080 Level FlightAware
01:19PM 45.2110 -63.2710 254° West 34,000 -1,260 Descending FlightAware
01:19PM 45.1900 -63.3810 255° West 482 555 34,000  Level FlightAware
01:20PM 45.1660 -63.5050 255° West 482 555 34,000  Level FlightAware
01:21PM 45.1430 -63.6190 254° West 481 554 34,000  Level FlightAware
01:21PM 45.1160 -63.7560 254° West 479 551 34,000  Level FlightAware
01:22PM 45.0920 -63.8760 254° West 474 545 34,000  Level FlightAware
01:23PM 45.0650 -64.0080 254° West 472 543 34,000  Level FlightAware
01:24PM 45.0390 -64.1380 254° West 471 542 34,000  Level FlightAware
01:24PM 45.0130 -64.2670 254° West 470 541 34,000  Level FlightAware
01:25PM 44.9890 -64.3850 254° West 469 540 34,000  Level FlightAware
01:26PM 44.9650 -64.5030 254° West 468 539 34,000  Level FlightAware
01:26PM 44.9380 -64.6290 253° West 468 539 34,000  Level FlightAware
01:27PM 44.9110 -64.7590 254° West 469 540 34,000  Level FlightAware
01:28PM 44.8870 -64.8770 254° West 470 541 34,000  Level FlightAware
01:28PM 44.8590 -65.0060 253° West 469 540 34,000  Level FlightAware
01:29PM 44.8350 -65.1210 254° West 468 539 34,000  Level FlightAware
01:30PM 44.8080 -65.2450 253° West 467 537 34,000  Level FlightAware
01:30PM 44.7840 -65.3600 254° West 467 537 34,000  Level FlightAware
01:31PM 44.7590 -65.4740 253° West 467 537 34,000  Level FlightAware
01:32PM 44.7320 -65.5970 253° West 467 537 34,000  Level FlightAware
01:33PM 44.7030 -65.7310 253° West 465 535 34,000  Level FlightAware
01:33PM 44.6820 -65.8500 256° West 467 537 34,000  Level FlightAware
01:34PM 44.6760 -65.9580 266° West 470 541 34,000  Level FlightAware
01:35PM 44.6750 -66.0940 269° West 471 542 34,000  Level FlightAware
01:36PM 44.6720 -66.3050 269° West 472 543 34,000  Level FlightAware
01:37PM 44.6710 -66.4450 269° West 472 543 34,000  Level FlightAware
01:37PM 44.6690 -66.5790 269° West 472 543 34,000  Level FlightAware
01:38PM 44.6670 -66.7080 269° West 472 543 34,000  Level FlightAware
01:39PM 44.6650 -66.8360 269° West 471 542 34,000  Level FlightAware
01:39PM 44.6650 -66.9560 270° West 472 543 34,000  Level FlightAware
01:40PM 44.6770 -67.0850 277° West 474 545 34,000  Level FlightAware
01:41PM 44.6950 -67.2180 281° West 477 549 34,000  Level FlightAware
01:42PM 44.7150 -67.3520 282° West 475 547 34,000  Level FlightAware
01:42PM 44.7330 -67.4680 282° West 475 547 34,000  Level FlightAware
01:43PM 44.7510 -67.5940 281° West 472 543 34,000  Level FlightAware
01:44PM 44.7610 -67.7260 276° West 471 542 34,000  Level FlightAware
01:45PM 44.7630 -67.8960 271° West 465 535 34,000  Level FlightAware
01:45PM 44.7590 -68.0290 268° West 465 535 34,000  Level FlightAware
01:46PM 44.7540 -68.1370 266° West 465 535 34,000  Level FlightAware
01:47PM 44.7490 -68.2580 267° West 465 535 34,000  Level FlightAware
01:47PM 44.7430 -68.3850 266° West 467 537 34,000  Level FlightAware
01:47PM 44.7410 -68.4190 265° West 468 539 34,000  Level FlightAware
01:49PM 44.7300 -68.6580 266° West 469 540 34,000  Level FlightAware
01:49PM 44.7240 -68.7790 266° West 468 539 34,000  Level FlightAware
01:50PM 44.7180 -68.8990 266° West 469 540 34,000  Level FlightAware
01:51PM 44.7110 -69.0330 266° West 471 542 34,000  Level FlightAware
01:51PM 44.7050 -69.1600 266° West 473 544 34,000  Level FlightAware
01:52PM 44.6970 -69.2990 265° West 474 545 34,000  Level FlightAware
01:53PM 44.6900 -69.4260 266° West 473 544 34,000  Level FlightAware
01:54PM 44.6830 -69.5540 266° West 474 545 34,000  Level FlightAware
01:54PM 44.6760 -69.6740 265° West 475 547 34,000  Level FlightAware
01:55PM 44.6680 -69.8110 265° West 475 547 34,000  Level FlightAware
01:56PM 44.6610 -69.9360 266° West 473 544 34,000  Level FlightAware
01:56PM 44.6530 -70.0720 265° West 471 542 34,000  Level FlightAware
01:57PM 44.6450 -70.1880 265° West 471 542 34,000  Level FlightAware
01:58PM 44.6370 -70.3230 265° West 469 540 34,000  Level FlightAware
01:58PM 44.6290 -70.4460 265° West 468 539 34,000  Level FlightAware
01:59PM 44.6210 -70.5730 265° West 469 540 34,000  Level FlightAware
02:00PM 44.6090 -70.7530 265° West 470 541 34,000  Level FlightAware
02:01PM 44.6000 -70.8930 265° West 468 539 34,000  Level FlightAware
02:02PM 44.5920 -71.0020 264° West 468 539 34,000  Level FlightAware
02:02PM 44.5830 -71.1310 264° West 467 537 34,000  Level FlightAware
02:03PM 44.5740 -71.2520 264° West 467 537 34,000  Level FlightAware
02:04PM 44.5670 -71.3630 265° West 467 537 34,000  Level FlightAware
02:04PM 44.5580 -71.4730 263° West 466 536 34,000  Level FlightAware
02:05PM 44.5480 -71.6120 264° West 466 536 34,000  Level FlightAware
02:06PM 44.5390 -71.7310 264° West 465 535 34,000  Level FlightAware
02:06PM 44.5300 -71.8510 264° West 465 535 34,000  Level FlightAware
02:07PM 44.5190 -71.9940 264° West 465 535 34,000  Level FlightAware
02:08PM 44.5100 -72.1100 264° West 466 536 34,000  Level FlightAware
02:08PM 44.4990 -72.2440 263° West 468 539 34,000  Level FlightAware
02:09PM 44.4910 -72.3480 264° West 469 540 34,000  Level FlightAware
02:10PM 44.4820 -72.4580 263° West 469 540 34,000  Level FlightAware
02:10PM 44.4700 -72.6010 263° West 469 540 34,000  Level FlightAware
02:11PM 44.4620 -72.6990 264° West 470 541 34,000  Level FlightAware
02:12PM 44.4510 -72.8230 263° West 469 540 34,000  Level FlightAware
02:12PM 44.4400 -72.9460 263° West 468 539 34,000  Level FlightAware
02:13PM 44.4310 -73.0580 264° West 467 537 34,000  Level FlightAware
02:13PM 44.4230 -73.1480 263° West 467 537 34,000  Level FlightAware
02:14PM 44.4110 -73.2830 263° West 466 536 34,000  Level FlightAware
02:15PM 44.3990 -73.4160 263° West 465 535 34,000  Level FlightAware
02:16PM 44.3880 -73.5370 263° West 464 534 34,000  Level FlightAware
02:16PM 44.3780 -73.6420 262° West 464 534 34,000  Level FlightAware
02:17PM 44.3670 -73.7600 263° West 466 536 34,000  Level FlightAware
02:18PM 44.3560 -73.8790 263° West 466 536 34,000  Level FlightAware
02:18PM 44.3440 -73.9980 262° West 465 535 34,000  Level FlightAware
02:19PM 44.3330 -74.1190 263° West 467 537 34,000  Level FlightAware
02:20PM 44.3210 -74.2380 262° West 468 539 34,000  Level FlightAware
02:20PM 44.3080 -74.3730 262° West 467 537 34,000  Level FlightAware
02:21PM 44.2960 -74.4890 262° West 468 539 34,000  Level FlightAware
02:22PM 44.2820 -74.6250 262° West 469 540 34,000  Level FlightAware
02:22PM 44.2700 -74.7430 262° West 470 541 34,000  Level FlightAware
02:23PM 44.2600 -74.8460 262° West 472 543 34,000  Level FlightAware
02:24PM 44.2460 -74.9710 261° West 471 542 34,000 120 Level FlightAware
02:24PM 44.2330 -75.0960 262° West 473 544 34,200 600 Climbing FlightAware
02:25PM 44.2200 -75.2180 262° West 478 550 34,800 960 Climbing FlightAware
02:26PM 44.2090 -75.3200 261° West 481 554 35,400 1,140 Climbing FlightAware
02:26PM 44.1950 -75.4570 262° West 476 548 36,400 1,080 Climbing FlightAware
02:27PM 44.1790 -75.5980 261° West 476 548 37,100 960 Climbing FlightAware
02:28PM 44.1650 -75.7190 261° West 472 543 37,800 660 Climbing FlightAware
02:28PM 44.1520 -75.8360 261° West 469 540 38,000 120 Climbing FlightAware
02:29PM 44.1370 -75.9720 261° West 468 539 38,000  Level FlightAware
02:30PM 44.1240 -76.0880 261° West 466 536 38,000  Level FlightAware
02:31PM 44.1110 -76.1990 261° West 466 536 38,000  Level FlightAware
02:31PM 44.0930 -76.3500 261° West 466 536 38,000  Level FlightAware
02:32PM 44.0780 -76.4810 261° West 464 534 38,000  Level FlightAware
02:33PM 44.0650 -76.5860 260° West 462 532 38,000  Level FlightAware
02:33PM 44.0480 -76.7260 260° West 462 532 38,000  Level FlightAware
02:34PM 44.0360 -76.8300 261° West 463 533 38,000  Level FlightAware
02:35PM 44.0220 -76.9430 260° West 464 534 38,000  Level FlightAware
02:35PM 44.0070 -77.0640 260° West 463 533 38,000  Level FlightAware
02:36PM 43.9910 -77.1940 260° West 459 528 38,000  Level FlightAware
02:37PM 43.9770 -77.3060 260° West 454 522 38,000  Level FlightAware
02:38PM 43.9590 -77.4500 260° West 451 519 38,000  Level FlightAware
02:38PM 43.9420 -77.5770 260° West 451 519 38,000  Level FlightAware
02:39PM 43.9270 -77.6940 260° West 451 519 38,000  Level FlightAware
02:40PM 43.9120 -77.8120 260° West 452 520 38,000  Level FlightAware
02:41PM 43.8940 -77.9470 260° West 453 521 38,000  Level FlightAware
02:41PM 43.8800 -78.0570 260° West 454 522 38,000  Level FlightAware
02:42PM 43.8640 -78.1720 259° West 454 522 38,000  Level FlightAware
02:43PM 43.8470 -78.2960 259° West 454 522 38,000  Level FlightAware
02:43PM 43.8310 -78.4180 260° West 454 522 38,000  Level FlightAware
02:44PM 43.8170 -78.5220 259° West 454 522 38,000  Level FlightAware
02:45PM 43.8000 -78.6440 259° West 455 524 38,000  Level FlightAware
02:45PM 43.7790 -78.7900 259° West 455 524 38,000  Level FlightAware
02:46PM 43.7660 -78.8860 259° West 455 524 38,000  Level FlightAware
02:47PM 43.7500 -78.9980 259° West 455 524 38,000  Level FlightAware
02:47PM 43.7340 -79.1120 259° West 455 524 38,000  Level FlightAware
02:48PM 43.7170 -79.2270 258° West 455 524 38,000  Level FlightAware
02:49PM 43.6980 -79.3570 259° West 455 524 38,000  Level FlightAware
02:49PM 43.6820 -79.4700 259° West 456 525 38,000  Level FlightAware
02:50PM 43.6640 -79.5910 258° West 456 525 38,000  Level FlightAware
02:51PM 43.6500 -79.6950 259° West 455 524 38,000  Level FlightAware
02:52PM 43.6360 -79.8220 261° West 454 522 38,000  Level FlightAware
02:52PM 43.6220 -79.9450 261° West 453 521 38,000  Level FlightAware
02:53PM 43.6090 -80.0500 260° West 453 521 38,000  Level FlightAware
02:53PM 43.5950 -80.1650 260° West 452 520 38,000  Level FlightAware
02:54PM 43.5810 -80.2810 261° West 451 519 38,000  Level FlightAware
02:55PM 43.5680 -80.3890 261° West 448 516 38,000  Level FlightAware
02:56PM 43.5510 -80.5260 260° West 446 513 38,000  Level FlightAware
02:56PM 43.5370 -80.6340 260° West 443 510 38,000  Level FlightAware
02:57PM 43.5220 -80.7560 260° West 440 506 38,000  Level FlightAware
02:58PM 43.5080 -80.8670 260° West 438 504 38,000  Level FlightAware
02:58PM 43.4950 -80.9640 260° West 436 502 38,000  Level FlightAware
02:59PM 43.4800 -81.0820 260° West 434 499 38,000  Level FlightAware
02:59PM 43.4710 -81.1560 261° West 432 497 38,000  Level FlightAware
03:00PM 43.4590 -81.2440 259° West 430 495 38,000  Level FlightAware
03:01PM 43.4440 -81.3600 260° West 429 494 38,000  Level FlightAware
03:01PM 43.4280 -81.4780 259° West 427 491 38,000  Level FlightAware
03:02PM 43.4130 -81.5890 259° West 427 491 38,000  Level FlightAware
03:03PM 43.3990 -81.6950 260° West 426 490 38,000  Level FlightAware
03:04PM 43.3830 -81.8120 259° West 425 489 38,000  Level FlightAware
03:04PM 43.3710 -81.9000 259° West 425 489 38,000  Level FlightAware
03:05PM 43.3530 -82.0350 260° West 423 487 38,000  Level FlightAware
03:06PM 43.3350 -82.1630 259° West 423 487 38,000  Level FlightAware
03:06PM 43.3200 -82.2690 259° West 422 486 38,000  Level FlightAware
03:07PM 43.3100 -82.3410 259° West 416 479 38,000 -360 Level FlightAware
03:08PM 43.2890 -82.4600 256° West 400 460 37,600 -720 Descending FlightAware
03:08PM 43.2480 -82.5550 239° Southwest 400 460 37,000 -1,140 Descending FlightAware
03:09PM 43.2150 -82.6310 239° Southwest 405 466 36,100 -1,080 Descending FlightAware
03:10PM 43.1730 -82.7270 239° Southwest 399 459 35,600 -780 Descending FlightAware
03:10PM 43.1320 -82.8050 234° Southwest 401 461 35,100 -900 Descending FlightAware
03:11PM 43.0790 -82.8850 228° Southwest 402 463 34,400 -840 Descending FlightAware
03:12PM 43.0350 -82.9540 229° Southwest 404 465 34,000 -300 Descending FlightAware
03:12PM 42.9910 -83.0240 229° Southwest 405 466 34,000  Level FlightAware
03:13PM 42.9440 -83.1260 238° Southwest 397 457 34,000  Level FlightAware
03:13PM 42.9370 -83.1780 260° West 395 455 34,000  Level FlightAware
03:14PM 42.9410 -83.2850 273° West 397 457 34,000  Level FlightAware
03:15PM 42.9470 -83.3870 275° West 397 457 34,000 -420 Level FlightAware
03:16PM 42.9530 -83.4920 274° West 396 456 33,500 -960 Descending FlightAware
03:16PM 42.9590 -83.5940 275° West 399 459 32,700 -1,080 Descending FlightAware
03:17PM 42.9650 -83.7060 274° West 402 463 32,000 -540 Descending FlightAware
03:18PM 42.9610 -83.8060 267° West 405 466 32,000  Level FlightAware
03:18PM 42.9510 -83.9140 263° West 404 465 32,000  Level FlightAware
03:19PM 42.9400 -84.0250 262° West 403 464 32,000  Level FlightAware
03:20PM 42.9300 -84.1230 262° West 402 463 32,000  Level FlightAware
03:20PM 42.9200 -84.2310 263° West 383 441 32,000  Level FlightAware
03:21PM 42.9120 -84.3120 262° West 366 421 32,000  Level FlightAware
03:22PM 42.8990 -84.4420 262° West 363 418 32,000  Level FlightAware
03:23PM 42.8890 -84.5320 261° West 363 418 32,000  Level FlightAware
03:23PM 42.8810 -84.6110 262° West 363 418 32,000  Level FlightAware
03:24PM 42.8710 -84.7090 262° West 364 419 32,000  Level FlightAware
03:25PM 42.8610 -84.8050 262° West 364 419 32,000  Level FlightAware
03:25PM 42.8520 -84.8930 262° West 362 417 32,000  Level FlightAware
03:26PM 42.8420 -84.9880 262° West 361 415 32,000  Level FlightAware
03:27PM 42.8330 -85.0820 263° West 362 417 32,000  Level FlightAware
03:27PM 42.8500 -85.1760 284° West 373 429 32,000  Level FlightAware
03:28PM 42.8890 -85.2680 300° West 373 429 32,000  Level FlightAware
03:29PM 42.9250 -85.3540 300° West 369 425 32,000  Level FlightAware
03:30PM 42.9600 -85.4370 300° West 369 425 32,000  Level FlightAware
03:30PM 42.9940 -85.5180 300° West 369 425 32,000 -360 Level FlightAware
03:31PM 43.0330 -85.6060 301° West 367 422 31,500 -720 Descending FlightAware
03:32PM 43.0590 -85.6900 293° West 357 411 31,000 -660 Descending FlightAware
03:32PM 43.0540 -85.7710 265° West 347 399 30,600 -1,020 Descending FlightAware
03:33PM 43.0410 -85.8050 242° Southwest 347 399 30,100 -1,680 Descending FlightAware
03:33PM 42.9910 -85.8590 218° Southwest 356 410 29,100 -1,620 Descending FlightAware
03:34PM 42.8880 -85.8680 184° South 370 426 27,400 -1,680 Descending FlightAware
03:35PM 42.8290 -85.8650 178° South 363 418 26,500 -1,620 Descending FlightAware
03:36PM 42.7480 -85.8590 177° South 359 413 25,200 -1,560 Descending FlightAware
03:36PM 42.6850 -85.8560 178° South 351 404 24,300 -1,860 Descending FlightAware
03:37PM 42.6580 -85.8640 192° South 348 400 23,500 -2,400 Descending FlightAware
03:37PM 42.6400 -85.8750 204° Southwest 345 397 23,100 -1,800 Descending FlightAware
03:37PM 42.6190 -85.9010 222° Southwest 337 388 22,600 -1,740 Descending FlightAware
03:37PM 42.5990 -85.9530 242° Southwest 331 381 21,800 -1,440 Descending FlightAware
03:38PM 42.5940 -86.0330 265° West 320 368 21,000 -1,320 Descending FlightAware
03:39PM 42.5910 -86.1110 267° West 325 374 20,100 -720 Descending FlightAware
03:40PM 42.5860 -86.2090 266° West 358 412 20,000 -120 Descending FlightAware
03:40PM 42.5820 -86.3000 267° West 356 410 20,000 -420 Level FlightAware
03:41PM 42.5780 -86.3900 267° West 348 400 19,500 -1,440 Descending FlightAware
03:42PM 42.5730 -86.4850 266° West 337 388 18,000 -2,220 Descending FlightAware
03:42PM 42.5690 -86.5620 266° West 338 389 16,500 -2,280 Descending FlightAware
03:43PM 42.5650 -86.6510 267° West 329 379 15,000 -1,980 Descending FlightAware
03:44PM 42.5580 -86.7290 263° West 318 366 13,800 -1,920 Descending FlightAware
03:44PM 42.5420 -86.7950 252° West 310 357 12,700 -1,680 Descending FlightAware
03:45PM 42.5220 -86.8670 249° West 305 351 11,700 -1,500 Descending FlightAware
03:46PM 42.4990 -86.9500 249° West 300 345 10,500 -1,440 Descending FlightAware
03:46PM 42.4870 -86.9940 250° West 299 344 10,000 -600 Descending FlightAware
03:47PM 42.4740 -87.0450 251° West 298 343 10,000  Level FlightAware
03:47PM 42.4660 -87.0740 250° West 289 333 10,000 -240 Level FlightAware
03:48PM 42.4510 -87.1250 248° West 260 299 9,800 -720 Descending FlightAware
03:48PM 42.4380 -87.1470 231° Southwest 256 295 9,400 -2,160 Descending FlightAware
03:48PM 42.4050 -87.1560 191° South 267 307 8,600 -2,160 Descending FlightAware
03:49PM 42.3690 -87.1570 181° South 266 306 7,900 -1,500 Descending FlightAware
03:49PM 42.3520 -87.1570 180° South 263 303 7,600 -1,260 Descending FlightAware
03:49PM 42.3220 -87.1580 181° South 259 298 7,100 -1,200 Descending FlightAware
03:50PM 42.2940 -87.1590 182° South 258 297 6,600 -1,200 Descending FlightAware
03:50PM 42.2650 -87.1600 181° South 251 289 6,100 -720 Descending FlightAware
03:51PM 42.2320 -87.1640 185° South 248 285 6,000 -180 Descending FlightAware
03:51PM 42.2150 -87.1710 197° South 246 283 6,000  Level FlightAware
03:51PM 42.1740 -87.1980 206° Southwest 247 284 6,000  Level FlightAware
03:52PM 42.1470 -87.2140 204° Southwest 245 282 6,000  Level FlightAware
03:52PM 42.1240 -87.2290 206° Southwest 245 282 6,000 -180 Level FlightAware
03:53PM 42.1130 -87.2350 202° Southwest 244 281 5,900 -1,200 Descending FlightAware
03:53PM 42.0770 -87.2580 205° Southwest 241 277 5,100 -900 Descending FlightAware
03:54PM 42.0460 -87.2780 206° Southwest 243 280 5,000 -180 Descending FlightAware
03:54PM 42.0290 -87.2880 204° Southwest 240 276 5,000  Level FlightAware
03:54PM 42.0060 -87.3030 206° Southwest 217 250 5,000  Level FlightAware
03:55PM 41.9860 -87.3230 217° Southwest 200 230 5,000  Level FlightAware
03:55PM 41.9710 -87.3560 239° Southwest 197 227 5,000  Level FlightAware
03:55PM 41.9690 -87.3750 262° West 203 234 5,000  Level FlightAware
03:56PM 41.9690 -87.4270 270° West 206 237 5,000  Level FlightAware
03:57PM 41.9690 -87.4530 270° West 187 215 5,000  Level FlightAware
03:57PM 41.9690 -87.4880 270° West 173 199 5,000  Level FlightAware
03:58PM 41.9690 -87.5190 270° West 173 199 5,000  Level FlightAware
03:58PM 41.9690 -87.5660 270° West 174 200 5,000 -120 Level FlightAware
03:59PM 41.9690 -87.5940 270° West 169 194 4,900 -780 Descending FlightAware
03:59PM 41.9690 -87.6190 270° West 171 197 4,400 -1,080 Descending FlightAware
03:59PM 41.9690 -87.6360 270° West 173 199 4,200 -840 Descending FlightAware
04:00PM 41.9690 -87.6650 270° West 173 199 3,800 -1,020 Descending FlightAware
04:00PM 41.9690 -87.6950 270° West 172 198 3,300 -960 Descending FlightAware
04:01PM 41.9690 -87.7210 270° West 170 196 3,000 -960 Descending FlightAware
04:01PM 41.9690 -87.7510 270° West 173 199 2,500 -960 Descending FlightAware
04:02PM 41.9690 -87.7820 270° West 176 203 2,100 -840 Descending FlightAware
04:02PM 41.9690 -87.8130 270° West 159 183 1,700 -780 Descending FlightAware
04:03PM 41.9690 -87.8370 270° West 140 161 1,400 -840 Descending FlightAware
04:03PM 41.9690 -87.8600 270° West 146 168 1,000 -900 Descending FlightAware
04:03PM 41.9690 -87.8860 270° West 145 167 600 -480 Descending FlightAware
04:04PM 41.9690 -87.9080 270° West 145 167 600  Level FlightAware